Chamblee, Georgia
Current Conditions -  °F | °C
As of 12:53 AM on Sunday 23 Nov 2014 (Local Time) from KPDK Reporting Station
Overcast Overcast  
Wind Chill: 50°   Ceiling: 2300
Heat Index: 50°   Visibility: 10mi
Dew Point: 29°   Wind: 7mph
Humidity: 44%   Direction: 70°ENE
Pressure: 30.2"   Gusts: NA
Location:  33.89°N, 84.3°W
Report Text: KPDK 230553Z 07006KT 10SM OVC023 10/M02 A3020 RMK AO2 SLP227 60000 T01001017 10122 20100 58017
Loading
Personal Weather Stations






























Interactive Weather Map New forecast layout! Learn more

10-Day Weather Forecast

Advertisements
Track Severe Weather on mobile